Time;durP1;ratioP1;P1;durP2;ratioP2;P2;SDS_P1;SDS_P2;PMS_P1;PMS_P2;Temp;Humidity;BMP_temperature;BMP_pressure;BME280_temperature;BME280_humidity;BME280_pressure;Samples;Min_cycle;Max_cycle;Signal;HPM_P1;HPM_P2
2023/01/21 00:00:29;;;;;;;16.35;7.70;;;-2.90;99.90;;;;;;10217973;23;20005;-80
2023/01/21 00:04:33;;;;;;;19.92;6.72;;;-2.90;99.90;;;;;;10214858;23;20094;-80
2023/01/21 00:08:34;;;;;;;20.27;8.48;;;-2.90;99.90;;;;;;10241177;23;20008;-79
2023/01/21 00:12:34;;;;;;;26.23;8.43;;;-3.00;99.90;;;;;;10218150;23;20408;-80
2023/01/21 00:16:35;;;;;;;17.55;7.68;;;-2.90;99.90;;;;;;10217451;23;20313;-80
2023/01/21 00:20:35;;;;;;;6.78;3.88;;;-3.00;99.90;;;;;;10217921;23;20009;-80
2023/01/21 00:24:36;;;;;;;10.32;5.57;;;-2.90;99.90;;;;;;10218059;23;20487;-80
2023/01/21 00:28:37;;;;;;;15.77;5.75;;;-2.70;99.90;;;;;;10218533;23;20009;-80
2023/01/21 00:32:37;;;;;;;11.05;5.25;;;-2.60;99.90;;;;;;10216112;23;20009;-80
2023/01/21 00:36:38;;;;;;;19.73;9.55;;;-2.70;99.90;;;;;;10220162;23;20016;-81
2023/01/21 00:40:38;;;;;;;15.85;8.82;;;-2.90;99.90;;;;;;10222098;23;20015;-80
2023/01/21 00:44:39;;;;;;;16.73;8.13;;;-3.00;99.90;;;;;;10217678;23;20032;-80
2023/01/21 00:48:39;;;;;;;19.67;9.85;;;-3.00;99.90;;;;;;10218533;23;20016;-80
2023/01/21 00:52:40;;;;;;;8.07;4.50;;;-2.90;99.90;;;;;;10221893;23;20009;-79
2023/01/21 00:56:40;;;;;;;13.73;8.25;;;-2.60;99.90;;;;;;10223072;23;20013;-80
2023/01/21 01:00:41;;;;;;;11.13;5.57;;;-2.70;99.90;;;;;;10218772;23;20009;-81
2023/01/21 01:04:41;;;;;;;16.98;7.35;;;-2.70;99.90;;;;;;10244444;23;20348;-80
2023/01/21 01:08:43;;;;;;;14.05;7.53;;;-2.80;99.90;;;;;;10244125;23;20076;-80
2023/01/21 01:12:43;;;;;;;20.85;10.35;;;-3.00;99.90;;;;;;10220095;23;20008;-80
2023/01/21 01:16:44;;;;;;;17.45;7.40;;;-3.00;99.90;;;;;;10249525;23;20028;-79
2023/01/21 01:20:46;;;;;;;22.00;9.40;;;-2.80;99.90;;;;;;10222490;23;20113;-80
2023/01/21 01:24:46;;;;;;;16.70;8.65;;;-2.80;99.90;;;;;;10218249;23;20355;-79
2023/01/21 01:28:47;;;;;;;23.48;7.43;;;-2.90;99.90;;;;;;10221693;23;20029;-80
2023/01/21 01:32:48;;;;;;;15.65;8.45;;;-2.90;99.90;;;;;;10222961;23;20325;-80
2023/01/21 01:36:49;;;;;;;20.73;8.80;;;-3.00;99.90;;;;;;10220355;23;20016;-80
2023/01/21 01:40:52;;;;;;;26.60;8.98;;;-3.10;99.90;;;;;;10252692;23;20467;-80
2023/01/21 01:45:02;;;;;;;16.73;7.35;;;-3.20;99.90;;;;;;10224436;23;20092;-80
2023/01/21 01:49:20;;;;;;;17.90;8.23;;;-3.20;99.90;;;;;;10224302;23;20001;-79
2023/01/21 01:53:20;;;;;;;6.15;3.13;;;-3.10;99.90;;;;;;10225039;23;20020;-77
2023/01/21 01:57:24;;;;;;;7.18;4.15;;;-3.10;99.90;;;;;;10225336;23;20033;-79
2023/01/21 02:01:24;;;;;;;11.80;6.90;;;-3.20;99.90;;;;;;10214631;23;20009;-80
2023/01/21 02:05:25;;;;;;;11.82;4.85;;;-3.20;99.90;;;;;;10216004;23;20021;-79
2023/01/21 02:09:28;;;;;;;13.65;5.90;;;-3.50;99.90;;;;;;10239167;23;20001;-80
2023/01/21 02:13:32;;;;;;;14.45;6.95;;;-3.40;99.90;;;;;;10212198;23;20558;-79
2023/01/21 02:17:52;;;;;;;14.73;6.57;;;-3.10;99.90;;;;;;10214986;23;20015;-80
2023/01/21 02:22:04;;;;;;;2.80;2.03;;;-3.20;99.90;;;;;;10153336;23;20088;-79
2023/01/21 02:26:32;;;;;;;9.90;4.22;;;-3.20;99.90;;;;;;10214958;23;20484;-80
2023/01/21 02:30:51;;;;;;;6.82;4.85;;;-3.20;99.90;;;;;;10212293;23;20005;-80
2023/01/21 02:35:04;;;;;;;24.73;9.80;;;-3.30;99.90;;;;;;10236287;23;20072;-80
2023/01/21 02:39:04;;;;;;;25.08;8.32;;;-3.40;99.90;;;;;;10210930;23;20041;-81
2023/01/21 02:43:18;;;;;;;4.72;3.35;;;-3.30;99.90;;;;;;10214770;23;20020;-80
2023/01/21 02:47:30;;;;;;;27.65;10.27;;;-3.10;99.90;;;;;;10211712;23;20001;-81
2023/01/21 02:51:30;;;;;;;18.48;8.80;;;-3.20;99.90;;;;;;10210502;23;20007;-81
2023/01/21 02:55:35;;;;;;;22.70;8.30;;;-3.30;99.90;;;;;;10210633;23;20013;-80
2023/01/21 02:59:39;;;;;;;7.03;4.50;;;-3.20;99.90;;;;;;10209809;23;20451;-78
2023/01/21 03:04:07;;;;;;;20.00;8.63;;;-3.20;99.90;;;;;;10210921;23;20012;-78
2023/01/21 03:08:16;;;;;;;18.85;9.35;;;-3.40;99.90;;;;;;10214756;23;20012;-82
2023/01/21 03:12:36;;;;;;;6.53;4.10;;;-3.60;99.90;;;;;;10211567;23;20316;-79
2023/01/21 03:16:58;;;;;;;9.48;5.57;;;-3.40;99.90;;;;;;10210048;23;20008;-78
2023/01/21 03:21:04;;;;;;;21.42;9.40;;;-3.40;99.90;;;;;;10211270;23;20097;-81
2023/01/21 03:25:07;;;;;;;5.40;3.70;;;-3.60;99.90;;;;;;10212965;23;20016;-80
2023/01/21 03:29:16;;;;;;;20.05;9.32;;;-3.40;99.90;;;;;;10213204;23;20001;-80
2023/01/21 03:33:18;;;;;;;15.30;7.45;;;-3.50;99.90;;;;;;10213788;23;20348;-80
2023/01/21 03:37:27;;;;;;;11.55;6.10;;;-3.60;99.90;;;;;;10214965;23;20474;-80
2023/01/21 03:41:33;;;;;;;4.90;2.50;;;-3.80;99.90;;;;;;10215509;23;20012;-80
2023/01/21 03:45:49;;;;;;;16.25;6.38;;;-3.80;99.90;;;;;;10241015;23;20001;-78
2023/01/21 03:50:12;;;;;;;11.95;6.07;;;-4.10;99.90;;;;;;10214599;23;20056;-78
2023/01/21 03:54:13;;;;;;;22.77;8.00;;;-4.00;99.90;;;;;;10216332;23;20020;-81
2023/01/21 03:58:13;;;;;;;17.40;8.18;;;-4.00;99.90;;;;;;10213742;23;20035;-81
2023/01/21 04:02:18;;;;;;;15.38;6.65;;;-4.20;99.90;;;;;;10215868;23;20009;-80
2023/01/21 04:06:21;;;;;;;12.25;5.35;;;-4.20;99.90;;;;;;10212794;23;20013;-80
2023/01/21 04:10:22;;;;;;;10.50;5.70;;;-4.30;99.90;;;;;;10214395;23;20001;-80
2023/01/21 04:14:22;;;;;;;16.17;8.82;;;-4.30;99.90;;;;;;10239064;23;20036;-80
2023/01/21 04:18:23;;;;;;;8.30;1.75;;;-4.50;99.90;;;;;;10215713;23;20005;-80
2023/01/21 04:22:23;;;;;;;24.20;7.97;;;-4.50;99.90;;;;;;10214921;23;20022;-80
2023/01/21 04:26:24;;;;;;;20.35;9.45;;;-4.60;99.90;;;;;;10213595;23;20032;-80
2023/01/21 04:30:24;;;;;;;8.93;5.88;;;-4.60;99.90;;;;;;10211143;23;20005;-80
2023/01/21 04:34:25;;;;;;;7.60;4.75;;;-4.50;99.90;;;;;;10237222;23;20009;-80
2023/01/21 04:38:26;;;;;;;6.03;3.10;;;-4.60;99.90;;;;;;10239133;23;20432;-80
2023/01/21 04:42:27;;;;;;;27.02;8.82;;;-4.60;99.90;;;;;;10213342;23;20057;-80
2023/01/21 04:46:28;;;;;;;6.38;4.00;;;-4.80;99.90;;;;;;10211488;23;20009;-80
2023/01/21 04:50:28;;;;;;;11.52;7.28;;;-5.00;99.90;;;;;;10237073;23;20001;-78
2023/01/21 04:54:29;;;;;;;8.52;5.00;;;-5.10;99.90;;;;;;10211105;23;20016;-77
2023/01/21 04:58:29;;;;;;;9.60;5.20;;;-5.00;99.90;;;;;;10211910;23;20009;-78
2023/01/21 05:02:30;;;;;;;13.25;6.82;;;-5.20;99.90;;;;;;10244234;23;20056;-78
2023/01/21 05:06:31;;;;;;;18.77;6.28;;;-5.10;99.90;;;;;;10242515;23;20013;-78
2023/01/21 05:10:31;;;;;;;15.00;6.38;;;-5.10;99.90;;;;;;10241306;23;20082;-78
2023/01/21 05:14:32;;;;;;;17.95;7.20;;;-5.10;99.90;;;;;;10215626;23;19997;-78
2023/01/21 05:18:33;;;;;;;15.75;7.18;;;-5.00;99.90;;;;;;10242969;23;20131;-78
2023/01/21 05:22:33;;;;;;;10.57;5.68;;;-5.00;99.90;;;;;;10215363;23;20016;-78
2023/01/21 05:26:34;;;;;;;22.15;8.65;;;-4.80;99.90;;;;;;10242153;23;20053;-78
2023/01/21 05:30:35;;;;;;;7.57;3.85;;;-4.60;99.90;;;;;;10216596;23;20001;-78
2023/01/21 05:34:35;;;;;;;11.40;6.32;;;-4.30;99.90;;;;;;10216320;23;20009;-78
2023/01/21 05:38:36;;;;;;;13.52;6.63;;;-4.20;99.90;;;;;;10215736;23;20004;-78
2023/01/21 05:42:36;;;;;;;15.15;7.38;;;-4.30;99.90;;;;;;10215706;23;19997;-78
2023/01/21 05:46:37;;;;;;;11.70;5.68;;;-4.30;99.90;;;;;;10213539;23;20001;-78
2023/01/21 05:50:38;;;;;;;15.05;7.32;;;-4.20;99.90;;;;;;10239411;23;20001;-76
2023/01/21 05:54:38;;;;;;;21.13;8.85;;;-4.10;99.90;;;;;;10239032;23;20005;-77
2023/01/21 05:58:39;;;;;;;18.63;7.43;;;-4.20;99.90;;;;;;10212800;23;20009;-78
2023/01/21 06:02:39;;;;;;;19.02;7.47;;;-4.30;99.90;;;;;;10212091;23;20026;-78
2023/01/21 06:06:40;;;;;;;17.00;7.28;;;-4.60;99.90;;;;;;10213846;23;20032;-82
2023/01/21 06:10:41;;;;;;;14.98;7.50;;;-4.30;99.90;;;;;;10220284;23;20009;-82
2023/01/21 06:14:41;;;;;;;17.85;6.88;;;-4.20;99.90;;;;;;10218455;23;20436;-78
2023/01/21 06:18:42;;;;;;;14.68;6.13;;;-4.20;99.90;;;;;;10209433;23;20005;-78
2023/01/21 06:22:42;;;;;;;28.40;6.75;;;-4.00;99.90;;;;;;10209284;23;20016;-77
2023/01/21 06:26:43;;;;;;;23.67;9.80;;;-4.10;99.90;;;;;;10236085;23;20008;-78
2023/01/21 06:30:43;;;;;;;10.40;4.97;;;-4.10;99.90;;;;;;10209600;23;20011;-76
2023/01/21 06:34:44;;;;;;;17.77;7.45;;;-4.10;99.90;;;;;;10208827;23;20063;-78
2023/01/21 06:38:44;;;;;;;11.40;6.38;;;-4.10;99.90;;;;;;10209491;23;20005;-77
2023/01/21 06:42:46;;;;;;;16.27;8.23;;;-4.10;99.90;;;;;;10208885;23;20005;-77
2023/01/21 06:46:47;;;;;;;8.85;5.85;;;-4.10;99.90;;;;;;10209201;23;20355;-77
2023/01/21 06:50:47;;;;;;;1.50;1.17;;;-4.10;99.90;;;;;;10209376;23;20001;-77
2023/01/21 06:54:48;;;;;;;6.85;3.55;;;-4.10;99.90;;;;;;10209267;23;20096;-77
2023/01/21 06:58:49;;;;;;;5.32;3.63;;;-4.10;99.90;;;;;;10235165;23;20510;-77
2023/01/21 07:02:53;;;;;;;9.52;4.43;;;-4.10;99.90;;;;;;10208910;23;20016;-78
2023/01/21 07:06:54;;;;;;;5.00;2.90;;;-4.00;99.90;;;;;;10207415;23;20351;-78
2023/01/21 07:10:55;;;;;;;18.02;6.50;;;-4.00;99.90;;;;;;10235095;23;20009;-78
2023/01/21 07:14:55;;;;;;;4.93;3.50;;;-3.90;99.90;;;;;;10208774;23;20096;-77
2023/01/21 07:18:56;;;;;;;15.43;5.82;;;-3.80;99.90;;;;;;10234486;23;20009;-77
2023/01/21 07:22:56;;;;;;;2.47;1.83;;;-3.80;99.90;;;;;;10209072;23;20331;-79
2023/01/21 07:26:57;;;;;;;4.50;2.55;;;-3.80;99.90;;;;;;10208777;23;20088;-80
2023/01/21 07:31:01;;;;;;;3.08;1.75;;;-3.80;99.90;;;;;;10234102;23;20001;-80
2023/01/21 07:35:01;;;;;;;8.65;4.97;;;-3.70;99.90;;;;;;10206967;23;20009;-80
2023/01/21 07:39:02;;;;;;;3.47;1.83;;;-3.60;99.90;;;;;;10230221;23;20309;-80
2023/01/21 07:43:03;;;;;;;1.23;0.93;;;-3.70;99.90;;;;;;10205211;23;20005;-80
2023/01/21 07:47:03;;;;;;;4.43;2.72;;;-3.60;99.90;;;;;;10205762;23;20008;-80
2023/01/21 07:51:04;;;;;;;8.70;4.05;;;-3.50;99.90;;;;;;10205563;23;20371;-81
2023/01/21 07:55:05;;;;;;;9.43;4.88;;;-3.60;99.90;;;;;;10234460;23;20076;-80
2023/01/21 07:59:06;;;;;;;12.48;5.15;;;-3.80;99.90;;;;;;10207478;23;20001;-81
2023/01/21 08:03:06;;;;;;;12.95;6.15;;;-3.80;99.90;;;;;;10206323;23;20017;-80
2023/01/21 08:07:08;;;;;;;4.70;3.75;;;-3.80;99.90;;;;;;10204875;23;20104;-80
2023/01/21 08:11:08;;;;;;;7.97;3.10;;;-3.70;99.90;;;;;;10204719;23;20009;-80
2023/01/21 08:15:10;;;;;;;7.53;3.22;;;-3.60;99.90;;;;;;10204587;23;20009;-80
2023/01/21 08:19:10;;;;;;;6.55;3.28;;;-3.60;99.90;;;;;;10204992;23;20049;-80
2023/01/21 08:23:11;;;;;;;7.82;3.10;;;-3.30;99.90;;;;;;10205895;23;20048;-80
2023/01/21 08:27:11;;;;;;;9.13;4.85;;;-3.20;99.90;;;;;;10206128;23;20340;-80
2023/01/21 08:31:12;;;;;;;10.55;4.50;;;-3.20;99.90;;;;;;10205260;23;20005;-80
2023/01/21 08:35:13;;;;;;;11.02;4.18;;;-3.10;99.90;;;;;;10231331;23;20005;-80
2023/01/21 08:39:15;;;;;;;6.13;2.45;;;-3.10;99.90;;;;;;10205755;23;20009;-80
2023/01/21 08:43:15;;;;;;;10.80;4.00;;;-2.90;99.90;;;;;;10205717;23;20012;-80
2023/01/21 08:47:17;;;;;;;6.30;4.22;;;-2.80;99.90;;;;;;10226354;23;20327;-80
2023/01/21 08:51:17;;;;;;;18.00;7.80;;;-2.50;99.90;;;;;;10204667;23;20016;-80
2023/01/21 08:55:18;;;;;;;12.57;5.75;;;-2.40;99.90;;;;;;10205040;23;20478;-80
2023/01/21 08:59:27;;;;;;;13.00;5.10;;;-2.10;99.90;;;;;;10208317;23;20013;-80
2023/01/21 09:03:28;;;;;;;5.35;3.17;;;-2.10;99.90;;;;;;10208461;23;20024;-80
2023/01/21 09:07:29;;;;;;;1.63;1.05;;;-2.00;99.90;;;;;;10211359;23;20014;-80
2023/01/21 09:11:29;;;;;;;10.88;6.63;;;-2.10;99.90;;;;;;10212280;23;20110;-81
2023/01/21 09:15:30;;;;;;;13.32;5.43;;;-2.30;99.90;;;;;;10238061;23;20025;-81
2023/01/21 09:19:30;;;;;;;3.05;2.42;;;-2.30;99.90;;;;;;10212593;23;20019;-81
2023/01/21 09:23:33;;;;;;;11.15;6.10;;;-2.30;99.90;;;;;;10212497;23;20021;-82
2023/01/21 09:27:34;;;;;;;11.20;5.28;;;-2.50;99.90;;;;;;10211669;23;20351;-81
2023/01/21 09:31:34;;;;;;;15.82;7.80;;;-2.40;99.90;;;;;;10211977;23;20015;-80
2023/01/21 09:35:35;;;;;;;9.65;5.70;;;-2.40;99.90;;;;;;10208634;23;20343;-80
2023/01/21 09:39:35;;;;;;;15.95;6.28;;;-2.40;99.90;;;;;;10208262;23;20099;-79
2023/01/21 09:43:46;;;;;;;8.15;3.88;;;-2.50;99.90;;;;;;10210423;23;20384;-81
2023/01/21 09:47:48;;;;;;;8.38;3.85;;;-2.50;99.90;;;;;;10208498;23;20343;-80
2023/01/21 09:52:19;;;;;;;12.07;6.13;;;-2.30;99.90;;;;;;10206746;23;20020;-80
2023/01/21 09:56:52;;;;;;;10.07;4.22;;;-2.30;99.90;;;;;;10190284;23;20009;-80
2023/01/21 10:01:19;;;;;;;21.17;4.97;;;-2.20;99.90;;;;;;10206915;23;20009;-80
2023/01/21 10:05:41;;;;;;;17.65;6.13;;;-2.10;99.90;;;;;;10206544;23;20036;-80
2023/01/21 10:10:01;;;;;;;13.38;4.07;;;-2.10;99.90;;;;;;10206122;23;20016;-80
2023/01/21 10:14:23;;;;;;;3.65;2.03;;;-2.10;99.90;;;;;;10206533;23;20013;-80
2023/01/21 10:18:30;;;;;;;6.07;2.20;;;-1.90;99.90;;;;;;10206717;23;20475;-80
2023/01/21 10:22:30;;;;;;;5.75;3.80;;;-1.80;99.90;;;;;;10206470;23;20067;-80
2023/01/21 10:26:33;;;;;;;6.32;3.53;;;-1.80;99.90;;;;;;10206656;23;20013;-80
2023/01/21 10:30:40;;;;;;;6.82;4.05;;;-1.80;99.90;;;;;;10206366;23;20377;-79
2023/01/21 10:34:51;;;;;;;4.95;2.42;;;-1.70;99.90;;;;;;10206306;23;20225;-80
2023/01/21 10:38:57;;;;;;;15.90;8.00;;;-1.70;99.90;;;;;;10206272;23;20013;-80
2023/01/21 10:43:06;;;;;;;8.40;4.25;;;-1.70;99.90;;;;;;10206380;23;20005;-80
2023/01/21 10:47:38;;;;;;;7.40;4.40;;;-1.70;99.90;;;;;;10206178;23;20005;-80
2023/01/21 10:51:59;;;;;;;17.98;5.30;;;-1.70;99.90;;;;;;10205288;23;20244;-80
2023/01/21 10:56:12;;;;;;;6.55;2.53;;;-1.50;99.90;;;;;;10206423;23;20016;-80
2023/01/21 11:00:26;;;;;;;12.23;4.63;;;-1.70;99.90;;;;;;10231943;23;20001;-80
2023/01/21 11:04:27;;;;;;;4.20;2.15;;;-1.70;99.90;;;;;;10205767;23;20436;-81
2023/01/21 11:08:28;;;;;;;16.52;3.42;;;-1.70;99.90;;;;;;10206508;23;20007;-80
2023/01/21 11:12:29;;;;;;;13.15;5.90;;;-1.50;99.90;;;;;;10207424;23;20016;-80
2023/01/21 11:16:44;;;;;;;6.53;4.05;;;-1.40;99.90;;;;;;10206495;23;20001;-80
2023/01/21 11:20:45;;;;;;;1.48;1.23;;;-1.50;99.90;;;;;;10205313;23;20443;-80
2023/01/21 11:24:50;;;;;;;15.65;6.47;;;-1.40;99.90;;;;;;10206112;23;20028;-80
2023/01/21 11:29:17;;;;;;;14.45;5.95;;;-1.30;99.90;;;;;;10206014;23;20017;-80
2023/01/21 11:33:17;;;;;;;10.25;5.65;;;-1.30;99.90;;;;;;10193348;23;20036;-79
2023/01/21 11:37:24;;;;;;;8.43;4.20;;;-1.40;99.90;;;;;;10232455;23;20004;-80
2023/01/21 11:41:25;;;;;;;9.85;4.40;;;-1.40;99.90;;;;;;10232381;23;20463;-80
2023/01/21 11:45:31;;;;;;;22.08;7.03;;;-1.40;99.90;;;;;;10206088;23;20101;-80
2023/01/21 11:49:32;;;;;;;15.60;3.25;;;-1.50;99.90;;;;;;10205158;23;20084;-80
2023/01/21 11:53:32;;;;;;;18.45;7.43;;;-1.40;99.90;;;;;;10231728;23;19997;-79
2023/01/21 11:57:33;;;;;;;4.82;2.70;;;-1.40;99.90;;;;;;10232639;23;20309;-80
2023/01/21 12:01:33;;;;;;;7.05;4.32;;;-1.30;99.90;;;;;;10205238;23;20333;-80
2023/01/21 12:05:41;;;;;;;5.70;2.53;;;-1.10;99.90;;;;;;10204834;23;20087;-80
2023/01/21 12:09:48;;;;;;;9.13;4.15;;;-0.90;99.90;;;;;;10204684;23;20019;-80
2023/01/21 12:14:06;;;;;;;2.58;1.75;;;-0.70;99.90;;;;;;10205078;23;20008;-80
2023/01/21 12:18:40;;;;;;;10.68;4.63;;;-1.00;99.90;;;;;;10205581;23;20083;-80
2023/01/21 12:22:51;;;;;;;14.63;5.60;;;-1.10;99.90;;;;;;10232222;23;20087;-79
2023/01/21 12:27:03;;;;;;;12.60;4.25;;;-1.20;99.90;;;;;;10230348;23;20148;-80
2023/01/21 12:31:44;;;;;;;9.48;4.93;;;-1.20;99.90;;;;;;10206062;23;20006;-80
2023/01/21 12:35:50;;;;;;;9.70;4.18;;;-1.20;99.90;;;;;;10208618;23;20451;-80
2023/01/21 12:39:53;;;;;;;11.90;5.35;;;-1.20;99.90;;;;;;10234827;23;19997;-80
2023/01/21 12:44:00;;;;;;;8.77;4.63;;;-1.10;99.90;;;;;;10208859;23;20013;-80
2023/01/21 12:48:17;;;;;;;3.45;2.28;;;-1.20;99.90;;;;;;10208948;23;20242;-80
2023/01/21 12:52:42;;;;;;;8.45;4.22;;;-1.10;99.90;;;;;;10208140;23;20324;-80
2023/01/21 12:56:51;;;;;;;8.98;4.45;;;-1.20;99.90;;;;;;10207890;23;20084;-80
2023/01/21 13:00:53;;;;;;;7.47;3.67;;;-1.30;99.90;;;;;;10233228;23;20303;-80
2023/01/21 13:05:22;;;;;;;9.43;4.45;;;-1.40;99.90;;;;;;10234045;23;20049;-80
2023/01/21 13:09:36;;;;;;;16.25;6.15;;;-1.50;99.90;;;;;;10209146;23;20470;-80
2023/01/21 13:13:58;;;;;;;7.35;3.55;;;-1.40;99.90;;;;;;10209006;23;20005;-80
2023/01/21 13:18:03;;;;;;;4.75;3.63;;;-1.40;99.90;;;;;;10208975;23;20008;-80
2023/01/21 13:22:13;;;;;;;15.55;5.22;;;-1.30;99.90;;;;;;10208622;23;20013;-80
2023/01/21 13:26:37;;;;;;;8.63;4.13;;;-1.20;99.90;;;;;;10207117;23;20072;-79
2023/01/21 13:30:48;;;;;;;1.65;1.25;;;-1.20;99.90;;;;;;10234271;23;20001;-80
2023/01/21 13:35:18;;;;;;;12.25;5.40;;;-1.30;99.90;;;;;;10208098;23;20016;-80
2023/01/21 13:39:47;;;;;;;10.73;4.57;;;-1.40;99.90;;;;;;10208049;23;20008;-80
2023/01/21 13:43:54;;;;;;;7.30;3.65;;;-1.40;99.90;;;;;;10207366;23;20008;-80
2023/01/21 13:48:27;;;;;;;6.03;2.67;;;-1.30;99.90;;;;;;10207652;23;20009;-80
2023/01/21 13:52:42;;;;;;;5.93;3.42;;;-1.30;99.90;;;;;;10207531;23;20160;-80
2023/01/21 13:56:59;;;;;;;0.75;0.60;;;-1.30;99.90;;;;;;10233758;23;20004;-80
2023/01/21 14:01:12;;;;;;;5.75;2.88;;;-1.40;99.90;;;;;;10206260;23;20001;-80
2023/01/21 14:05:39;;;;;;;7.13;2.38;;;-1.30;99.90;;;;;;10206820;23;20005;-80
2023/01/21 14:09:50;;;;;;;8.15;4.15;;;-1.40;99.90;;;;;;10206891;23;20067;-80
2023/01/21 14:14:13;;;;;;;2.17;1.52;;;-1.30;99.90;;;;;;10206761;23;20013;-79
2023/01/21 14:18:22;;;;;;;5.05;2.08;;;-1.30;99.90;;;;;;10206779;23;20024;-80
2023/01/21 14:22:53;;;;;;;9.02;4.05;;;-1.30;99.90;;;;;;10234953;23;20678;-80
2023/01/21 14:27:02;;;;;;;5.13;3.03;;;-1.30;99.90;;;;;;10208397;23;20005;-80
2023/01/21 14:31:12;;;;;;;10.60;4.27;;;-1.40;99.90;;;;;;10208919;23;20009;-80
2023/01/21 14:35:18;;;;;;;3.40;2.10;;;-1.50;99.90;;;;;;10209053;23;20396;-80
2023/01/21 14:39:39;;;;;;;4.65;2.90;;;-1.50;99.90;;;;;;10213377;23;20439;-79
2023/01/21 14:43:40;;;;;;;1.85;1.17;;;-1.50;99.90;;;;;;10205719;23;20009;-80
2023/01/21 14:47:46;;;;;;;12.30;5.35;;;-1.60;99.90;;;;;;10232936;23;20081;-80
2023/01/21 14:51:48;;;;;;;9.75;4.45;;;-1.60;99.90;;;;;;10206369;23;20005;-80
2023/01/21 14:56:15;;;;;;;6.60;2.58;;;-1.70;99.90;;;;;;10205553;23;20013;-80
2023/01/21 15:00:32;;;;;;;7.70;2.22;;;-1.60;99.90;;;;;;10200694;23;20169;-80
2023/01/21 15:04:39;;;;;;;5.65;3.75;;;-1.70;99.90;;;;;;10206156;23;20019;-80
2023/01/21 15:08:43;;;;;;;5.85;3.35;;;-1.70;99.90;;;;;;10205697;23;20016;-80
2023/01/21 15:13:00;;;;;;;8.57;3.65;;;-1.70;99.90;;;;;;10208782;23;20356;-79
2023/01/21 15:17:01;;;;;;;3.45;1.85;;;-1.70;99.90;;;;;;10207265;23;20016;-80
2023/01/21 15:21:28;;;;;;;5.22;2.83;;;-1.70;99.90;;;;;;10208880;23;20101;-79
2023/01/21 15:25:33;;;;;;;2.25;1.63;;;-1.70;99.90;;;;;;10208671;23;20096;-78
2023/01/21 15:29:35;;;;;;;5.78;3.03;;;-1.60;99.90;;;;;;10234804;23;20379;-78
2023/01/21 15:33:58;;;;;;;4.45;2.63;;;-1.60;99.90;;;;;;10208308;23;20013;-80
2023/01/21 15:38:08;;;;;;;9.60;3.55;;;-1.60;99.90;;;;;;10235186;23;20005;-80
2023/01/21 15:42:22;;;;;;;4.18;1.92;;;-1.70;99.90;;;;;;10208527;23;20514;-80
2023/01/21 15:46:31;;;;;;;3.40;2.35;;;-1.70;99.90;;;;;;10208069;23;20152;-80
2023/01/21 15:50:40;;;;;;;;;;;-1.70;99.90;;;;;;10234818;23;20072;-80
2023/01/21 15:55:09;;;;;;;6.10;2.95;;;-1.70;99.90;;;;;;10204424;23;19904;-80
2023/01/21 15:59:27;;;;;;;8.60;4.88;;;-1.80;99.90;;;;;;10206334;23;20043;-80
2023/01/21 16:03:40;;;;;;;3.42;2.13;;;-1.80;99.90;;;;;;10205060;23;20059;-80
2023/01/21 16:08:10;;;;;;;5.07;2.45;;;-1.80;99.90;;;;;;10205386;23;20343;-79
2023/01/21 16:12:35;;;;;;;6.32;3.33;;;-1.80;99.90;;;;;;10205411;23;20072;-80
2023/01/21 16:16:49;;;;;;;3.35;1.90;;;-1.90;99.90;;;;;;10232000;23;20036;-79
2023/01/21 16:20:52;;;;;;;5.93;4.10;;;-1.90;99.90;;;;;;10205124;23;20005;-79
2023/01/21 16:25:05;;;;;;;5.72;2.67;;;-2.00;99.90;;;;;;10205773;23;20573;-81
2023/01/21 16:29:14;;;;;;;5.38;2.63;;;-2.10;99.90;;;;;;10206662;23;20025;-78
2023/01/21 16:33:15;;;;;;;9.07;4.18;;;-2.10;99.90;;;;;;10206099;23;20008;-78
2023/01/21 16:37:18;;;;;;;4.18;2.03;;;-2.20;99.90;;;;;;10207184;23;20399;-79
2023/01/21 16:41:22;;;;;;;7.28;2.88;;;-2.20;99.90;;;;;;10232202;23;19997;-79
2023/01/21 16:45:24;;;;;;;3.45;1.70;;;-2.20;99.90;;;;;;10206540;23;20020;-80
2023/01/21 16:49:25;;;;;;;5.28;2.38;;;-2.20;99.90;;;;;;10206330;23;20041;-80
2023/01/21 16:53:26;;;;;;;5.57;2.70;;;-2.20;99.90;;;;;;10206367;23;20009;-80
2023/01/21 16:57:30;;;;;;;4.80;3.10;;;-2.30;99.90;;;;;;10207155;23;20008;-80
2023/01/21 17:01:31;;;;;;;2.00;1.75;;;-2.30;99.90;;;;;;10206623;23;20005;-79
2023/01/21 17:05:34;;;;;;;3.40;2.45;;;-2.30;99.90;;;;;;10205246;23;20016;-80
2023/01/21 17:09:36;;;;;;;3.40;2.38;;;-2.30;99.90;;;;;;10203567;23;20017;-79
2023/01/21 17:13:42;;;;;;;4.10;2.13;;;-2.30;99.90;;;;;;10205160;23;20009;-80
2023/01/21 17:17:43;;;;;;;6.47;2.45;;;-2.30;99.90;;;;;;10206612;23;20316;-80
2023/01/21 17:21:46;;;;;;;5.70;3.28;;;-2.30;99.90;;;;;;10208736;23;20019;-79
2023/01/21 17:26:07;;;;;;;4.13;2.03;;;-2.30;99.90;;;;;;10236952;23;20004;-79
2023/01/21 17:30:30;;;;;;;5.75;2.55;;;-2.30;99.90;;;;;;10210639;23;20017;-80
2023/01/21 17:34:33;;;;;;;4.85;2.50;;;-2.40;99.90;;;;;;10208388;23;20068;-81
2023/01/21 17:38:39;;;;;;;1.80;1.33;;;-2.40;99.90;;;;;;10207947;23;20584;-80
2023/01/21 17:42:40;;;;;;;1.95;1.20;;;-2.40;99.90;;;;;;10208060;23;20009;-79
2023/01/21 17:46:51;;;;;;;4.53;2.22;;;-2.30;99.90;;;;;;10208010;23;20049;-80
2023/01/21 17:50:52;;;;;;;8.63;3.17;;;-2.30;99.90;;;;;;10208096;23;20036;-80
2023/01/21 17:55:25;;;;;;;2.38;1.45;;;-2.30;99.90;;;;;;10208254;23;20013;-79
2023/01/21 17:59:40;;;;;;;1.92;1.30;;;-2.30;99.90;;;;;;10208139;23;20013;-80
2023/01/21 18:03:40;;;;;;;2.28;2.08;;;-2.30;99.90;;;;;;10207112;23;20702;-78
2023/01/21 18:07:41;;;;;;;6.63;3.20;;;-2.30;99.90;;;;;;10233122;23;20009;-80
2023/01/21 18:11:42;;;;;;;1.05;1.02;;;-2.30;99.90;;;;;;10231699;23;20009;-79
2023/01/21 18:15:43;;;;;;;3.05;1.70;;;-2.40;99.90;;;;;;10205547;23;20519;-79
2023/01/21 18:19:44;;;;;;;2.35;1.58;;;-2.40;99.90;;;;;;10231853;23;20462;-77
2023/01/21 18:23:45;;;;;;;5.40;2.88;;;-2.30;99.90;;;;;;10205080;23;20024;-79
2023/01/21 18:27:53;;;;;;;12.90;3.20;;;-2.30;99.90;;;;;;10205246;23;20432;-79
2023/01/21 18:31:53;;;;;;;4.05;1.70;;;-2.30;99.90;;;;;;10205865;23;20443;-78
2023/01/21 18:35:54;;;;;;;0.65;0.35;;;-2.30;99.90;;;;;;10204812;23;20016;-79
2023/01/21 18:39:54;;;;;;;6.95;3.00;;;-2.30;99.90;;;;;;10204891;23;20204;-77
2023/01/21 18:43:55;;;;;;;6.00;2.85;;;-2.20;99.90;;;;;;10205396;23;20095;-78
2023/01/21 18:47:57;;;;;;;7.80;3.05;;;-2.30;99.90;;;;;;10205769;23;20001;-79
2023/01/21 18:51:57;;;;;;;3.63;0.70;;;-2.30;99.90;;;;;;10232192;23;20439;-78
2023/01/21 18:55:58;;;;;;;7.20;2.97;;;-2.30;99.90;;;;;;10204814;23;20052;-78
2023/01/21 18:59:59;;;;;;;5.13;1.90;;;-2.30;99.90;;;;;;10204535;23;20005;-79
2023/01/21 19:03:59;;;;;;;11.57;4.22;;;-2.30;99.90;;;;;;10230885;23;20001;-79
2023/01/21 19:08:00;;;;;;;4.35;1.95;;;-2.20;99.90;;;;;;10204014;23;20005;-80
2023/01/21 19:12:01;;;;;;;5.95;3.40;;;-2.20;99.90;;;;;;10204140;23;20009;-80
2023/01/21 19:16:01;;;;;;;3.78;2.40;;;-2.20;99.90;;;;;;10204727;23;20009;-79
2023/01/21 19:20:03;;;;;;;6.10;3.17;;;-2.20;99.90;;;;;;10205229;23;20019;-79
2023/01/21 19:24:05;;;;;;;2.45;1.40;;;-2.20;99.90;;;;;;10203747;23;20033;-80
2023/01/21 19:28:08;;;;;;;8.90;3.50;;;-2.20;99.90;;;;;;10203902;23;20009;-80
2023/01/21 19:32:15;;;;;;;4.82;2.90;;;-2.10;99.90;;;;;;10204782;23;20009;-78
2023/01/21 19:36:19;;;;;;;5.88;2.53;;;-2.00;99.90;;;;;;10204291;23;20097;-80
2023/01/21 19:40:23;;;;;;;2.17;2.00;;;-2.00;99.90;;;;;;10204840;23;20084;-79
2023/01/21 19:44:23;;;;;;;8.27;2.47;;;-2.10;99.90;;;;;;10231146;23;20012;-80
2023/01/21 19:48:26;;;;;;;1.30;1.10;;;-2.20;99.90;;;;;;10204537;23;20009;-79
2023/01/21 19:52:26;;;;;;;5.05;2.47;;;-2.20;99.90;;;;;;10204076;23;20009;-79
2023/01/21 19:56:27;;;;;;;1.65;0.88;;;-2.10;99.90;;;;;;10203443;23;20009;-79
2023/01/21 20:00:35;;;;;;;6.13;3.45;;;-2.10;99.90;;;;;;10229686;23;20095;-79
2023/01/21 20:04:35;;;;;;;7.45;4.05;;;-2.10;99.90;;;;;;10203611;23;20009;-80
2023/01/21 20:08:36;;;;;;;2.80;1.77;;;-2.00;99.90;;;;;;10204571;23;20100;-80
2023/01/21 20:12:36;;;;;;;6.35;3.97;;;-2.10;99.90;;;;;;10203670;23;20007;-81
2023/01/21 20:16:48;;;;;;;8.73;3.60;;;-2.10;99.90;;;;;;10228806;23;20005;-77
2023/01/21 20:20:50;;;;;;;10.52;3.95;;;-2.00;99.90;;;;;;10202581;23;20084;-77
2023/01/21 20:24:51;;;;;;;7.80;3.72;;;-2.00;99.90;;;;;;10228753;23;20095;-77
2023/01/21 20:28:53;;;;;;;7.28;3.78;;;-2.10;99.90;;;;;;10202116;23;20088;-77
2023/01/21 20:32:54;;;;;;;7.20;2.90;;;-1.90;99.90;;;;;;10228926;23;20005;-76
2023/01/21 20:36:55;;;;;;;12.95;4.40;;;-1.70;99.90;;;;;;10228666;23;20001;-76
2023/01/21 20:40:57;;;;;;;12.13;4.82;;;-1.80;99.90;;;;;;10202807;23;20431;-76
2023/01/21 20:44:57;;;;;;;10.18;4.10;;;-1.90;99.90;;;;;;10229361;23;20027;-76
2023/01/21 20:48:59;;;;;;;6.60;3.53;;;-1.70;99.90;;;;;;10202782;23;20013;-77
2023/01/21 20:53:00;;;;;;;7.10;3.33;;;-1.80;99.90;;;;;;10204097;23;20736;-77
2023/01/21 20:57:00;;;;;;;7.95;3.75;;;-1.80;99.90;;;;;;10205405;23;20005;-77